createdAt,value
2023-05-12T00:00:17.396Z,207.25
2023-05-12T00:01:17.314Z,209.97
2023-05-12T00:02:17.320Z,207.82
2023-05-12T00:03:17.442Z,206.64
2023-05-12T00:04:17.377Z,209.53
2023-05-12T00:05:17.445Z,211.79
2023-05-12T00:06:17.447Z,212.40
2023-05-12T00:07:17.453Z,211.97
2023-05-12T00:08:17.459Z,212.69
2023-05-12T00:09:17.496Z,209.74
2023-05-12T00:10:17.591Z,207.11
2023-05-12T00:11:17.513Z,207.92
2023-05-12T00:12:17.524Z,209.07
2023-05-12T00:13:17.563Z,205.98
2023-05-12T00:14:17.523Z,203.38
2023-05-12T00:15:17.564Z,198.96
2023-05-12T00:16:17.616Z,196.29
2023-05-12T00:17:17.594Z,190.45
2023-05-12T00:18:17.588Z,190.75
2023-05-12T00:19:17.606Z,192.31
2023-05-12T00:20:17.965Z,192.00
2023-05-12T00:21:17.710Z,185.22
2023-05-12T00:22:17.740Z,184.28
2023-05-12T00:23:17.713Z,187.26
2023-05-12T00:24:17.813Z,188.23
2023-05-12T00:25:17.856Z,185.52
2023-05-12T00:26:17.889Z,184.32
2023-05-12T00:27:18.082Z,182.84
2023-05-12T00:28:17.921Z,186.55
2023-05-12T00:29:17.961Z,186.74
2023-05-12T00:30:18.302Z,184.15
2023-05-12T00:31:17.992Z,180.93
2023-05-12T00:32:18.042Z,182.63
2023-05-12T00:33:18.124Z,182.91
2023-05-12T00:34:18.095Z,184.37
2023-05-12T00:35:18.096Z,187.08
2023-05-12T00:36:18.105Z,187.57
2023-05-12T00:37:18.159Z,188.04
2023-05-12T00:38:18.181Z,184.36
2023-05-12T00:39:18.249Z,187.77
2023-05-12T00:40:18.540Z,189.49
2023-05-12T00:41:18.315Z,188.27
2023-05-12T00:42:18.340Z,185.52
2023-05-12T00:43:18.383Z,186.63
2023-05-12T00:44:18.400Z,186.31
2023-05-12T00:45:18.446Z,183.56
2023-05-12T00:46:18.585Z,181.68
2023-05-12T00:47:18.558Z,177.99
2023-05-12T00:48:18.554Z,174.45
2023-05-12T00:49:18.605Z,170.99
2023-05-12T00:50:19.000Z,174.66
2023-05-12T00:51:18.648Z,175.41
2023-05-12T00:52:18.662Z,174.45
2023-05-12T00:53:18.658Z,175.63
2023-05-12T00:54:18.714Z,175.66
2023-05-12T00:55:18.756Z,174.40
2023-05-12T00:56:18.750Z,172.40
2023-05-12T00:57:18.775Z,171.48
2023-05-12T00:58:18.791Z,170.17
2023-05-12T00:59:18.803Z,169.17
2023-05-12T01:00:19.065Z,161.53
2023-05-12T01:01:19.079Z,160.78
2023-05-12T01:02:19.028Z,161.45
2023-05-12T01:03:19.091Z,159.58
2023-05-12T01:04:19.010Z,162.00
2023-05-12T01:05:19.014Z,164.09
2023-05-12T01:06:19.012Z,154.75
2023-05-12T01:07:19.086Z,157.78
2023-05-12T01:08:19.098Z,165.98
2023-05-12T01:09:19.164Z,160.88
2023-05-12T01:10:19.369Z,155.00
2023-05-12T01:11:19.206Z,153.25
2023-05-12T01:12:19.252Z,155.53
2023-05-12T01:13:19.290Z,156.78
2023-05-12T01:14:19.337Z,158.11
2023-05-12T01:15:19.332Z,159.01
2023-05-12T01:16:19.361Z,160.51
2023-05-12T01:17:19.410Z,167.44
2023-05-12T01:18:19.522Z,167.75
2023-05-12T01:19:19.479Z,169.36
2023-05-12T01:20:19.665Z,165.83
2023-05-12T01:21:19.456Z,167.45
2023-05-12T01:22:19.535Z,166.54
2023-05-12T01:23:19.536Z,162.15
2023-05-12T01:24:19.595Z,161.19
2023-05-12T01:25:19.586Z,159.41
2023-05-12T01:26:19.615Z,159.23
2023-05-12T01:27:19.614Z,162.33
2023-05-12T01:28:19.663Z,165.23
2023-05-12T01:29:19.747Z,167.60
2023-05-12T01:30:20.112Z,170.70
2023-05-12T01:31:21.274Z,177.93
2023-05-12T01:32:19.795Z,185.33
2023-05-12T01:33:19.849Z,186.14
2023-05-12T01:34:19.905Z,184.76
2023-05-12T01:35:19.975Z,186.04
2023-05-12T01:36:19.987Z,180.57
2023-05-12T01:37:20.027Z,174.28
2023-05-12T01:38:20.043Z,175.09
2023-05-12T01:39:20.067Z,175.07
2023-05-12T01:40:20.295Z,177.23
2023-05-12T01:41:20.070Z,170.70
2023-05-12T01:42:20.128Z,171.57
2023-05-12T01:43:22.202Z,173.19
2023-05-12T01:44:20.236Z,171.70
2023-05-12T01:45:20.237Z,168.86
2023-05-12T01:46:20.291Z,169.16
2023-05-12T01:47:20.299Z,171.79
2023-05-12T01:48:20.296Z,174.12
2023-05-12T01:49:20.292Z,173.75
2023-05-12T01:50:20.509Z,174.98
2023-05-12T01:51:20.405Z,179.17
2023-05-12T01:52:20.444Z,178.49
2023-05-12T01:53:20.455Z,173.90
2023-05-12T01:54:20.521Z,178.55
2023-05-12T01:55:20.567Z,178.73
2023-05-12T01:56:20.621Z,179.86
2023-05-12T01:57:20.626Z,188.77
2023-05-12T01:58:20.619Z,192.59
2023-05-12T01:59:20.671Z,198.05
2023-05-12T02:00:20.909Z,192.24
2023-05-12T02:01:20.758Z,191.82
2023-05-12T02:02:20.786Z,197.90
2023-05-12T02:03:20.857Z,201.93
2023-05-12T02:04:20.838Z,199.95
2023-05-12T02:05:20.859Z,199.27
2023-05-12T02:06:20.919Z,196.72
2023-05-12T02:07:20.925Z,196.26
2023-05-12T02:08:20.972Z,198.21
2023-05-12T02:09:20.969Z,196.88
2023-05-12T02:10:21.196Z,201.54
2023-05-12T02:11:21.027Z,199.24
2023-05-12T02:12:20.998Z,198.57
2023-05-12T02:13:21.031Z,197.34
2023-05-12T02:14:21.017Z,196.46
2023-05-12T02:15:21.058Z,187.33
2023-05-12T02:16:21.115Z,183.23
2023-05-12T02:17:21.082Z,182.81
2023-05-12T02:18:21.113Z,184.41
2023-05-12T02:19:21.131Z,187.31
2023-05-12T02:20:21.359Z,185.37
2023-05-12T02:21:21.197Z,178.77
2023-05-12T02:22:21.241Z,174.33
2023-05-12T02:23:21.302Z,173.55
2023-05-12T02:24:21.383Z,172.19
2023-05-12T02:25:21.396Z,169.84
2023-05-12T02:26:21.370Z,171.70
2023-05-12T02:27:21.441Z,177.27
2023-05-12T02:28:21.528Z,176.43
2023-05-12T02:29:21.559Z,173.94
2023-05-12T02:30:21.772Z,175.34
2023-05-12T02:31:21.613Z,181.09
2023-05-12T02:32:21.705Z,179.76
2023-05-12T02:33:21.656Z,175.45
2023-05-12T02:34:21.697Z,174.43
2023-05-12T02:35:21.781Z,172.27
2023-05-12T02:36:21.782Z,170.32
2023-05-12T02:37:21.784Z,168.43
2023-05-12T02:38:21.797Z,166.29
2023-05-12T02:39:21.799Z,173.76
2023-05-12T02:40:21.976Z,180.01
2023-05-12T02:41:21.841Z,173.32
2023-05-12T02:42:21.928Z,171.65
2023-05-12T02:43:21.949Z,168.44
2023-05-12T02:44:21.930Z,170.48
2023-05-12T02:45:21.980Z,172.35
2023-05-12T02:46:22.059Z,175.75
2023-05-12T02:47:22.085Z,179.46
2023-05-12T02:48:22.064Z,180.64
2023-05-12T02:49:22.039Z,187.27
2023-05-12T02:50:22.278Z,186.45
2023-05-12T02:51:22.088Z,186.88
2023-05-12T02:52:22.057Z,184.90
2023-05-12T02:53:22.105Z,187.66
2023-05-12T02:54:22.152Z,192.71
2023-05-12T02:55:22.146Z,195.72
2023-05-12T02:56:22.174Z,202.52
2023-05-12T02:57:22.224Z,202.10
2023-05-12T02:58:22.309Z,196.26
2023-05-12T02:59:22.333Z,194.98
2023-05-12T03:00:22.404Z,198.46
2023-05-12T03:01:22.435Z,197.95
2023-05-12T03:02:22.493Z,199.96
2023-05-12T03:03:22.513Z,197.46
2023-05-12T03:04:22.515Z,198.79
2023-05-12T03:05:22.519Z,196.15
2023-05-12T03:06:22.526Z,196.76
2023-05-12T03:07:22.561Z,198.49
2023-05-12T03:08:22.547Z,201.24
2023-05-12T03:09:22.532Z,199.80
2023-05-12T03:10:22.700Z,192.21
2023-05-12T03:11:22.570Z,185.42
2023-05-12T03:12:22.574Z,189.58
2023-05-12T03:13:22.660Z,197.82
2023-05-12T03:14:22.626Z,205.52
2023-05-12T03:15:22.654Z,207.17
2023-05-12T03:16:22.738Z,200.66
2023-05-12T03:17:22.764Z,203.09
2023-05-12T03:18:22.820Z,207.41
2023-05-12T03:19:22.700Z,208.98
2023-05-12T03:20:22.899Z,207.83
2023-05-12T03:21:22.718Z,212.10
2023-05-12T03:22:22.815Z,217.89
2023-05-12T03:23:22.746Z,227.56
2023-05-12T03:24:22.760Z,222.87
2023-05-12T03:25:22.766Z,218.66
2023-05-12T03:26:22.804Z,227.59
2023-05-12T03:27:22.835Z,234.48
2023-05-12T03:28:22.901Z,229.57
2023-05-12T03:29:22.934Z,230.06
2023-05-12T03:30:22.943Z,230.99
2023-05-12T03:31:23.004Z,230.98
2023-05-12T03:32:23.081Z,233.04
2023-05-12T03:33:23.067Z,236.66
2023-05-12T03:34:23.118Z,237.99
2023-05-12T03:35:23.143Z,242.00
2023-05-12T03:36:23.173Z,242.29
2023-05-12T03:37:23.190Z,238.32
2023-05-12T03:38:23.213Z,233.99
2023-05-12T03:39:23.279Z,229.26
2023-05-12T03:40:23.464Z,230.85
2023-05-12T03:41:23.317Z,226.32
2023-05-12T03:42:23.393Z,228.84
2023-05-12T03:43:23.394Z,230.45
2023-05-12T03:44:23.431Z,231.24
2023-05-12T03:45:23.457Z,231.14
2023-05-12T03:46:23.513Z,231.34
2023-05-12T03:47:23.731Z,233.97
2023-05-12T03:48:23.635Z,236.69
2023-05-12T03:49:24.421Z,239.14
2023-05-12T03:50:23.574Z,242.63
2023-05-12T03:51:23.582Z,245.06
2023-05-12T03:52:23.590Z,247.57
2023-05-12T03:53:23.600Z,247.01
2023-05-12T03:54:23.674Z,246.90
2023-05-12T03:55:23.648Z,240.93
2023-05-12T03:56:23.676Z,243.75
2023-05-12T03:57:23.742Z,244.54
2023-05-12T03:58:23.723Z,245.43
2023-05-12T03:59:23.747Z,245.49
2023-05-12T04:00:23.771Z,241.74
2023-05-12T04:01:23.812Z,241.98
2023-05-12T04:02:23.938Z,236.44
2023-05-12T04:03:23.934Z,228.68
2023-05-12T04:04:23.871Z,229.63
2023-05-12T04:05:23.901Z,227.18
2023-05-12T04:06:23.947Z,225.43
2023-05-12T04:07:23.987Z,219.14
2023-05-12T04:08:24.067Z,221.17
2023-05-12T04:09:24.100Z,230.19
2023-05-12T04:10:24.116Z,230.55
2023-05-12T04:11:24.145Z,228.56
2023-05-12T04:12:24.226Z,224.11
2023-05-12T04:13:24.273Z,220.24
2023-05-12T04:14:31.856Z,214.21
2023-05-12T04:15:25.260Z,207.49
2023-05-12T04:16:24.323Z,204.85
2023-05-12T04:17:24.308Z,213.86
2023-05-12T04:18:24.299Z,217.46
2023-05-12T04:19:24.225Z,216.33
2023-05-12T04:20:24.286Z,220.31
2023-05-12T04:21:24.225Z,217.39
2023-05-12T04:22:25.743Z,218.58
2023-05-12T04:23:24.222Z,219.62
2023-05-12T04:24:24.217Z,224.54
2023-05-12T04:25:24.194Z,224.23
2023-05-12T04:26:24.209Z,226.44
2023-05-12T04:27:24.294Z,230.96
2023-05-12T04:28:24.312Z,237.79
2023-05-12T04:29:24.348Z,239.99
2023-05-12T04:30:24.383Z,236.89
2023-05-12T04:31:24.441Z,226.67
2023-05-12T04:32:24.443Z,217.62
2023-05-12T04:33:24.430Z,216.36
2023-05-12T04:34:24.433Z,222.50
2023-05-12T04:35:24.438Z,224.76
2023-05-12T04:36:24.494Z,230.53
2023-05-12T04:37:24.533Z,231.01
2023-05-12T04:38:24.537Z,233.09
2023-05-12T04:39:24.607Z,231.03
2023-05-12T04:40:24.609Z,227.11
2023-05-12T04:41:24.714Z,230.74
2023-05-12T04:42:24.711Z,233.16
2023-05-12T04:44:24.731Z,231.57
2023-05-12T04:45:24.747Z,230.48
2023-05-12T04:46:24.766Z,238.73
2023-05-12T04:47:24.711Z,244.71
2023-05-12T04:48:24.706Z,240.16
2023-05-12T04:49:24.693Z,238.77
2023-05-12T04:50:24.681Z,241.92
2023-05-12T04:51:24.689Z,238.51
2023-05-12T04:52:24.955Z,232.04
2023-05-12T04:53:24.642Z,230.54
2023-05-12T04:54:24.659Z,229.95
2023-05-12T04:55:24.644Z,232.34
2023-05-12T04:56:24.623Z,234.85
2023-05-12T04:57:24.668Z,232.60
2023-05-12T04:58:24.636Z,221.66
2023-05-12T04:59:24.636Z,226.59
2023-05-12T05:00:24.635Z,233.32
2023-05-12T05:01:24.639Z,238.06
2023-05-12T05:02:24.721Z,234.54
2023-05-12T05:03:24.686Z,223.39
2023-05-12T05:04:24.594Z,216.19
2023-05-12T05:05:24.562Z,228.52
2023-05-12T05:06:24.563Z,236.92
2023-05-12T05:07:24.566Z,250.00
2023-05-12T05:08:24.595Z,239.39
2023-05-12T05:09:24.527Z,234.07
2023-05-12T05:10:24.547Z,234.24
2023-05-12T05:11:24.526Z,230.34
2023-05-12T05:12:24.547Z,232.88
2023-05-12T05:13:24.547Z,230.90
2023-05-12T05:14:24.514Z,219.86
2023-05-12T05:15:24.520Z,222.95
2023-05-12T05:16:24.698Z,223.79
2023-05-12T05:17:24.514Z,219.94
2023-05-12T05:18:24.730Z,221.07
2023-05-12T05:19:36.238Z,226.66
2023-05-12T05:20:28.928Z,226.83
2023-05-12T05:21:24.468Z,226.82
2023-05-12T05:22:24.465Z,227.80
2023-05-12T05:23:24.486Z,231.60
2023-05-12T05:24:24.476Z,236.71
2023-05-12T05:25:24.426Z,240.63
2023-05-12T05:26:24.428Z,234.38
2023-05-12T05:27:24.452Z,230.50
2023-05-12T05:28:24.437Z,229.70
2023-05-12T05:29:24.465Z,227.77
2023-05-12T05:30:24.411Z,229.40
2023-05-12T05:31:24.456Z,236.10
2023-05-12T05:32:24.574Z,235.68
2023-05-12T05:33:24.397Z,232.46
2023-05-12T05:34:24.398Z,221.38
2023-05-12T05:35:24.374Z,222.86
2023-05-12T05:36:24.385Z,211.08
2023-05-12T05:37:24.389Z,223.97
2023-05-12T05:38:24.404Z,225.89
2023-05-12T05:39:24.396Z,220.29
2023-05-12T05:40:24.370Z,211.45
2023-05-12T05:41:24.371Z,217.94
2023-05-12T05:42:24.383Z,213.89
2023-05-12T05:43:24.324Z,204.28
2023-05-12T05:44:24.328Z,200.39
2023-05-12T05:45:25.132Z,219.77
2023-05-12T05:46:24.393Z,223.19
2023-05-12T05:47:24.366Z,217.46
2023-05-12T05:48:24.482Z,208.58
2023-05-12T05:49:24.369Z,196.56
2023-05-12T05:50:24.339Z,187.99
2023-05-12T05:51:24.375Z,177.65
2023-05-12T05:52:24.367Z,172.53
2023-05-12T05:53:24.378Z,177.43
2023-05-12T05:54:24.452Z,155.86
2023-05-12T05:55:24.559Z,138.90
2023-05-12T05:56:24.981Z,138.13
2023-05-12T05:57:24.979Z,154.61
2023-05-12T05:58:25.007Z,157.95
2023-05-12T05:59:24.823Z,162.50
2023-05-12T06:00:24.962Z,166.08
2023-05-12T06:01:24.893Z,166.29
2023-05-12T06:02:25.086Z,162.25
2023-05-12T06:03:25.063Z,161.69
2023-05-12T06:04:25.160Z,151.45
2023-05-12T06:05:25.154Z,145.62
2023-05-12T06:06:25.169Z,139.90
2023-05-12T06:07:25.144Z,134.61
2023-05-12T06:08:25.250Z,135.56
2023-05-12T06:09:25.259Z,127.02
2023-05-12T06:10:25.261Z,123.23
2023-05-12T06:11:25.261Z,121.23
2023-05-12T06:12:25.316Z,132.65
2023-05-12T06:13:25.333Z,147.52
2023-05-12T06:14:25.395Z,151.51
2023-05-12T06:15:25.416Z,154.06
2023-05-12T06:16:25.449Z,151.68
2023-05-12T06:17:25.512Z,137.80
2023-05-12T06:18:25.547Z,126.75
2023-05-12T06:19:25.527Z,122.99
2023-05-12T06:20:25.534Z,133.10
2023-05-12T06:21:25.590Z,150.47
2023-05-12T06:22:25.599Z,153.99
2023-05-12T06:23:25.598Z,159.88
2023-05-12T06:24:25.638Z,172.17
2023-05-12T06:25:25.675Z,156.09
2023-05-12T06:26:25.709Z,158.43
2023-05-12T06:27:25.704Z,168.70
2023-05-12T06:28:25.712Z,183.74
2023-05-12T06:29:25.790Z,178.84
2023-05-12T06:30:25.769Z,216.62
2023-05-12T06:31:25.839Z,236.80
2023-05-12T06:32:25.863Z,208.55
2023-05-12T06:33:25.821Z,215.76
2023-05-12T06:34:25.830Z,209.25
2023-05-12T06:35:25.848Z,180.49
2023-05-12T06:36:25.854Z,163.11
2023-05-12T06:37:25.876Z,156.38
2023-05-12T06:38:25.911Z,153.47
2023-05-12T06:39:25.909Z,137.61
2023-05-12T06:40:25.961Z,138.07
2023-05-12T06:41:25.978Z,148.75
2023-05-12T06:42:26.029Z,157.22
2023-05-12T06:43:26.498Z,158.01
2023-05-12T06:44:26.094Z,154.01
2023-05-12T06:45:26.093Z,161.74
2023-05-12T06:46:26.152Z,161.87
2023-05-12T06:47:26.177Z,157.42
2023-05-12T06:48:26.220Z,152.69
2023-05-12T06:49:26.233Z,155.38
2023-05-12T06:50:26.261Z,169.33
2023-05-12T06:51:26.354Z,154.21
2023-05-12T06:52:26.292Z,147.20
2023-05-12T06:53:26.260Z,157.20
2023-05-12T06:54:26.294Z,158.47
2023-05-12T06:55:26.301Z,160.82
2023-05-12T06:56:26.340Z,157.23
2023-05-12T06:57:26.349Z,150.92
2023-05-12T06:58:26.512Z,152.17
2023-05-12T06:59:26.391Z,156.15
2023-05-12T07:00:26.461Z,150.33
2023-05-12T07:01:26.484Z,150.03
2023-05-12T07:02:26.502Z,137.60
2023-05-12T07:03:26.477Z,142.58
2023-05-12T07:04:26.569Z,144.83
2023-05-12T07:05:26.520Z,150.04
2023-05-12T07:06:26.549Z,147.70
2023-05-12T07:07:26.547Z,150.06
2023-05-12T07:08:26.584Z,143.72
2023-05-12T07:09:26.597Z,140.97
2023-05-12T07:10:26.649Z,138.67
2023-05-12T07:11:26.678Z,132.40
2023-05-12T07:12:26.721Z,126.69
2023-05-12T07:13:26.754Z,132.12
2023-05-12T07:14:26.805Z,136.08
2023-05-12T07:15:26.855Z,137.40
2023-05-12T07:16:26.927Z,145.54
2023-05-12T07:17:26.959Z,149.09
2023-05-12T07:18:26.982Z,157.54
2023-05-12T07:19:26.968Z,157.37
2023-05-12T07:20:27.027Z,160.69
2023-05-12T07:21:27.000Z,158.30
2023-05-12T07:22:27.007Z,145.00
2023-05-12T07:23:27.051Z,133.49
2023-05-12T07:24:27.164Z,138.83
2023-05-12T07:25:27.257Z,143.83
2023-05-12T07:26:27.183Z,135.39
2023-05-12T07:27:27.182Z,134.33
2023-05-12T07:28:27.182Z,133.82
2023-05-12T07:29:27.192Z,123.23
2023-05-12T07:30:27.253Z,133.43
2023-05-12T07:31:27.317Z,125.75
2023-05-12T07:32:27.352Z,119.14
2023-05-12T07:33:27.316Z,112.11
2023-05-12T07:34:27.344Z,102.75
2023-05-12T07:35:27.422Z,93.64
2023-05-12T07:36:27.492Z,72.63
2023-05-12T07:37:27.526Z,52.17
2023-05-12T07:38:27.566Z,49.29
2023-05-12T07:39:27.646Z,42.43
2023-05-12T07:40:27.588Z,48.71
2023-05-12T07:41:27.641Z,50.03
2023-05-12T07:42:27.643Z,42.73
2023-05-12T07:43:27.726Z,44.17
2023-05-12T07:44:27.761Z,38.71
2023-05-12T07:45:27.815Z,29.18
2023-05-12T07:46:27.870Z,20.34
2023-05-12T07:47:27.824Z,18.28
2023-05-12T07:48:27.864Z,10.27
2023-05-12T07:49:27.964Z,13.86
2023-05-12T07:50:27.978Z,22.67
2023-05-12T07:51:28.006Z,23.83
2023-05-12T07:52:28.062Z,41.37
2023-05-12T07:53:28.084Z,50.18
2023-05-12T07:54:28.088Z,37.22
2023-05-12T07:55:28.272Z,15.76
2023-05-12T07:56:28.137Z,4.95
2023-05-12T07:57:28.663Z,0.00
2023-05-12T07:58:28.218Z,3.66
2023-05-12T07:59:28.228Z,23.03
2023-05-12T08:00:28.273Z,34.40
2023-05-12T08:01:28.273Z,46.23
2023-05-12T08:02:28.356Z,50.60
2023-05-12T08:03:28.639Z,67.18
2023-05-12T08:04:28.439Z,61.47
2023-05-12T08:05:28.381Z,58.47
2023-05-12T08:06:28.375Z,64.53
2023-05-12T08:07:28.409Z,72.49
2023-05-12T08:08:28.442Z,72.71
2023-05-12T08:09:28.446Z,67.97
2023-05-12T08:10:28.472Z,96.55
2023-05-12T08:11:28.533Z,70.34
2023-05-12T08:12:28.611Z,67.59
2023-05-12T08:13:28.587Z,74.20
2023-05-12T08:14:28.646Z,78.10
2023-05-12T08:15:28.641Z,60.08
2023-05-12T08:16:28.686Z,46.06
2023-05-12T08:17:29.421Z,49.00
2023-05-12T08:18:28.725Z,32.30
2023-05-12T08:19:28.703Z,28.05
2023-05-12T08:20:28.734Z,26.43
2023-05-12T08:21:28.736Z,29.81
2023-05-12T08:22:28.761Z,19.70
2023-05-12T08:23:28.796Z,22.32
2023-05-12T08:24:28.867Z,69.12
2023-05-12T08:25:29.522Z,60.38
2023-05-12T08:26:29.153Z,39.27
2023-05-12T08:27:29.043Z,6.59
2023-05-12T08:28:29.009Z,0.00
2023-05-12T08:29:29.027Z,0.00
2023-05-12T08:30:29.054Z,0.00
2023-05-12T08:31:29.201Z,39.97
2023-05-12T08:32:29.169Z,25.00
2023-05-12T08:33:29.162Z,25.85
2023-05-12T08:34:29.164Z,29.76
2023-05-12T08:35:29.196Z,24.53
2023-05-12T08:36:29.298Z,39.84
2023-05-12T08:37:30.004Z,158.59
2023-05-12T08:38:29.225Z,157.57
2023-05-12T08:39:29.277Z,106.41
2023-05-12T08:40:29.270Z,49.26
2023-05-12T08:41:29.309Z,15.19
2023-05-12T08:42:29.348Z,3.59
2023-05-12T08:43:29.383Z,6.29
2023-05-12T08:44:29.419Z,4.85
2023-05-12T08:45:29.454Z,9.40
2023-05-12T08:46:29.482Z,17.86
2023-05-12T08:47:29.581Z,20.58
2023-05-12T08:48:29.553Z,29.62
2023-05-12T08:49:29.628Z,48.19
2023-05-12T08:50:29.592Z,58.40
2023-05-12T08:51:30.058Z,62.74
2023-05-12T08:52:29.660Z,55.03
2023-05-12T08:53:29.720Z,50.53
2023-05-12T08:54:29.759Z,55.54
2023-05-12T08:55:33.560Z,62.94
2023-05-12T08:57:30.116Z,63.33
2023-05-12T08:58:40.265Z,62.24
2023-05-12T08:59:30.776Z,59.49
2023-05-12T09:00:30.040Z,56.05
2023-05-12T09:01:29.778Z,53.91
2023-05-12T09:02:41.063Z,51.73
2023-05-12T09:03:30.764Z,48.30
2023-05-12T09:04:29.799Z,63.66
2023-05-12T09:05:29.746Z,69.44
2023-05-12T09:06:29.718Z,72.53
2023-05-12T09:07:29.759Z,71.39
2023-05-12T09:08:29.679Z,67.50
2023-05-12T09:09:29.685Z,69.68
2023-05-12T09:11:29.676Z,75.46
2023-05-12T09:12:29.675Z,70.34
2023-05-12T09:13:29.643Z,74.21
2023-05-12T09:14:29.686Z,71.02
2023-05-12T09:15:29.686Z,67.24
2023-05-12T09:16:29.689Z,76.93
2023-05-12T09:17:29.712Z,93.51
2023-05-12T09:18:29.747Z,98.51
2023-05-12T09:19:29.609Z,86.95
2023-05-12T09:20:31.820Z,69.59
2023-05-12T09:21:29.809Z,54.76
2023-05-12T09:22:29.857Z,39.55
2023-05-12T09:23:29.878Z,27.88
2023-05-12T09:24:29.897Z,24.64
2023-05-12T09:25:29.882Z,26.45
2023-05-12T09:26:30.534Z,35.19
2023-05-12T09:27:30.109Z,38.48
2023-05-12T09:28:30.059Z,23.38
2023-05-12T09:29:32.518Z,22.99
2023-05-12T09:30:30.083Z,21.81
2023-05-12T09:31:30.134Z,21.28
2023-05-12T09:32:30.069Z,26.09
2023-05-12T09:33:30.038Z,22.73
2023-05-12T09:34:30.072Z,22.81
2023-05-12T09:35:30.030Z,34.18
2023-05-12T09:36:30.028Z,41.38
2023-05-12T09:37:30.143Z,45.62
2023-05-12T09:38:30.042Z,43.39
2023-05-12T09:39:30.181Z,46.67
2023-05-12T09:40:30.018Z,52.58
2023-05-12T09:41:30.012Z,54.55
2023-05-12T09:42:30.009Z,44.08
2023-05-12T09:43:30.084Z,44.94
2023-05-12T09:44:30.029Z,48.65
2023-05-12T09:45:29.988Z,67.68
2023-05-12T09:46:30.084Z,63.66
2023-05-12T09:47:30.082Z,53.11
2023-05-12T09:48:30.046Z,34.56
2023-05-12T09:49:29.972Z,29.02
2023-05-12T09:50:37.425Z,28.64
2023-05-12T09:51:30.957Z,22.79
2023-05-12T09:52:29.940Z,19.39
2023-05-12T09:53:30.045Z,12.98
2023-05-12T09:54:29.910Z,14.32
2023-05-12T09:55:29.914Z,16.30
2023-05-12T09:56:29.921Z,37.29
2023-05-12T09:57:29.907Z,48.90
2023-05-12T09:58:29.890Z,37.03
2023-05-12T09:59:29.900Z,23.42
2023-05-12T10:00:41.168Z,13.35
2023-05-12T10:01:30.962Z,3.55
2023-05-12T10:02:30.034Z,0.00
2023-05-12T10:03:29.946Z,13.39
2023-05-12T10:04:29.879Z,22.68
2023-05-12T10:05:29.861Z,23.51
2023-05-12T10:06:29.842Z,29.28
2023-05-12T10:07:29.831Z,37.61
2023-05-12T10:08:29.820Z,38.18
2023-05-12T10:09:29.841Z,37.34
2023-05-12T10:10:30.054Z,37.83
2023-05-12T10:11:29.847Z,25.77
2023-05-12T10:12:29.809Z,26.66
2023-05-12T10:13:29.813Z,40.09
2023-05-12T10:14:29.794Z,47.56
2023-05-12T10:15:29.796Z,42.10
2023-05-12T10:16:29.817Z,39.66
2023-05-12T10:17:29.830Z,35.47
2023-05-12T10:18:29.853Z,26.21
2023-05-12T10:19:30.571Z,31.57
2023-05-12T10:20:29.909Z,47.88
2023-05-12T10:21:29.904Z,61.48
2023-05-12T10:22:29.921Z,46.32
2023-05-12T10:23:29.962Z,24.52
2023-05-12T10:24:30.040Z,22.95
2023-05-12T10:25:29.994Z,24.81
2023-05-12T10:26:30.026Z,30.86
2023-05-12T10:27:30.104Z,39.53
2023-05-12T10:28:30.104Z,39.61
2023-05-12T10:29:30.580Z,40.08
2023-05-12T10:30:30.229Z,39.29
2023-05-12T10:31:30.263Z,46.07
2023-05-12T10:32:30.249Z,38.89
2023-05-12T10:33:30.298Z,36.83
2023-05-12T10:34:30.300Z,40.25
2023-05-12T10:35:30.347Z,47.48
2023-05-12T10:36:30.352Z,44.48
2023-05-12T10:37:30.421Z,53.12
2023-05-12T10:38:30.437Z,54.14
2023-05-12T10:39:30.476Z,52.37
2023-05-12T10:40:30.480Z,51.36
2023-05-12T10:41:30.514Z,51.69
2023-05-12T10:42:30.554Z,57.81
2023-05-12T10:43:30.581Z,43.15
2023-05-12T10:44:30.659Z,47.46
2023-05-12T10:45:31.101Z,49.90
2023-05-12T10:46:30.932Z,59.53
2023-05-12T10:47:30.757Z,60.20
2023-05-12T10:48:30.753Z,56.14
2023-05-12T10:49:30.795Z,55.63
2023-05-12T10:50:30.817Z,44.53
2023-05-12T10:51:30.856Z,49.71
2023-05-12T10:52:30.927Z,48.67
2023-05-12T10:53:45.202Z,25.38
2023-05-12T10:54:31.891Z,17.38
2023-05-12T10:55:30.956Z,6.92
2023-05-12T10:56:31.108Z,12.22
2023-05-12T10:57:31.249Z,15.72
2023-05-12T10:58:31.162Z,5.85
2023-05-12T10:59:31.334Z,7.50
2023-05-12T11:00:31.406Z,14.52
2023-05-12T11:01:31.666Z,4.64
2023-05-12T11:02:32.073Z,0.00
2023-05-12T11:03:31.543Z,0.00
2023-05-12T11:04:30.930Z,0.00
2023-05-12T11:05:31.836Z,0.00
2023-05-12T11:07:31.189Z,0.00
2023-05-12T11:08:30.985Z,0.00
2023-05-12T11:09:31.261Z,7.18
2023-05-12T11:10:31.333Z,8.60
2023-05-12T11:11:31.334Z,21.22
2023-05-12T11:12:30.929Z,20.66
2023-05-12T11:13:30.951Z,23.81
2023-05-12T11:14:30.985Z,24.85
2023-05-12T11:15:31.018Z,22.90
2023-05-12T11:16:31.121Z,27.24
2023-05-12T11:17:31.625Z,27.46
2023-05-12T11:18:31.142Z,25.75
2023-05-12T11:19:31.193Z,25.00
2023-05-12T11:20:31.602Z,28.49
2023-05-12T11:21:31.227Z,24.70
2023-05-12T11:22:31.266Z,27.01
2023-05-12T11:23:31.413Z,21.91
2023-05-12T11:24:31.332Z,25.95
2023-05-12T11:25:31.621Z,26.49
2023-05-12T11:26:31.380Z,31.33
2023-05-12T11:27:31.418Z,28.98
2023-05-12T11:28:31.455Z,27.54
2023-05-12T11:29:31.481Z,33.97
2023-05-12T11:30:31.501Z,43.84
2023-05-12T11:31:31.540Z,46.68
2023-05-12T11:32:31.667Z,52.19
2023-05-12T11:33:31.557Z,52.84
2023-05-12T11:34:31.618Z,52.21
2023-05-12T11:35:31.675Z,42.10
2023-05-12T11:36:31.731Z,38.03
2023-05-12T11:37:31.768Z,25.00
2023-05-12T11:38:31.769Z,23.55
2023-05-12T11:39:31.774Z,19.45
2023-05-12T11:40:31.846Z,24.69
2023-05-12T11:41:31.841Z,27.19
2023-05-12T11:42:31.866Z,33.88
2023-05-12T11:43:31.906Z,33.02
2023-05-12T11:44:31.898Z,27.23
2023-05-12T11:45:31.978Z,28.76
2023-05-12T11:46:32.065Z,30.73
2023-05-12T11:47:32.031Z,28.55
2023-05-12T11:48:32.042Z,24.07
2023-05-12T11:49:32.102Z,25.00
2023-05-12T11:50:32.161Z,26.67
2023-05-12T11:51:32.174Z,31.64
2023-05-12T11:52:32.216Z,25.85
2023-05-12T11:53:32.246Z,25.77
2023-05-12T11:54:32.273Z,35.46
2023-05-12T11:55:32.294Z,41.34
2023-05-12T11:56:32.283Z,43.72
2023-05-12T11:57:32.556Z,40.65
2023-05-12T11:58:33.078Z,41.54
2023-05-12T11:59:32.420Z,42.42
2023-05-12T12:00:32.469Z,46.17
2023-05-12T12:01:32.479Z,44.30
2023-05-12T12:02:32.662Z,39.82
2023-05-12T12:03:32.563Z,40.96
2023-05-12T12:04:33.598Z,43.15
2023-05-12T12:05:32.605Z,45.75
2023-05-12T12:06:32.632Z,47.22
2023-05-12T12:07:32.698Z,47.43
2023-05-12T12:08:32.736Z,46.10
2023-05-12T12:09:32.738Z,43.65
2023-05-12T12:10:32.821Z,39.55
2023-05-12T12:11:32.923Z,39.54
2023-05-12T12:12:32.870Z,50.63
2023-05-12T12:13:32.893Z,60.15
2023-05-12T12:14:32.839Z,64.75
2023-05-12T12:15:32.898Z,62.67
2023-05-12T12:16:33.004Z,47.01
2023-05-12T12:17:32.937Z,36.97
2023-05-12T12:18:33.059Z,37.49
2023-05-12T12:19:33.000Z,35.81
2023-05-12T12:20:33.061Z,31.11
2023-05-12T12:21:33.074Z,27.40
2023-05-12T12:22:33.105Z,28.74
2023-05-12T12:23:40.641Z,32.69
2023-05-12T12:24:34.143Z,33.01
2023-05-12T12:25:33.126Z,34.11
2023-05-12T12:26:33.159Z,37.99
2023-05-12T12:27:33.103Z,41.73
2023-05-12T12:28:33.106Z,36.06
2023-05-12T12:29:33.119Z,37.18
2023-05-12T12:30:33.077Z,42.30
2023-05-12T12:31:33.139Z,40.09
2023-05-12T12:32:33.087Z,40.03
2023-05-12T12:33:33.067Z,29.59
2023-05-12T12:34:33.055Z,28.58
2023-05-12T12:35:33.074Z,31.69
2023-05-12T12:36:33.096Z,30.98
2023-05-12T12:37:33.084Z,33.36
2023-05-12T12:38:33.080Z,31.39
2023-05-12T12:39:33.140Z,29.91
2023-05-12T12:40:33.142Z,34.46
2023-05-12T12:41:33.203Z,41.44
2023-05-12T12:42:33.191Z,42.08